createdAt,value
2022-08-20T00:02:30.228Z,20.59
2022-08-20T00:05:39.694Z,20.71
2022-08-20T00:08:42.885Z,20.46
2022-08-20T00:11:45.156Z,20.23
2022-08-20T00:14:47.383Z,20.11
2022-08-20T00:17:50.720Z,19.97
2022-08-20T00:20:55.249Z,19.99
2022-08-20T00:23:57.617Z,20.06
2022-08-20T00:26:59.875Z,20.09
2022-08-20T00:30:04.870Z,20.18
2022-08-20T00:33:14.415Z,20.31
2022-08-20T00:36:17.645Z,20.25
2022-08-20T00:39:19.870Z,20.14
2022-08-20T00:42:22.205Z,20.14
2022-08-20T00:45:28.271Z,20.31
2022-08-20T00:48:32.933Z,20.27
2022-08-20T00:51:39.960Z,20.52
2022-08-20T00:54:52.561Z,20.36
2022-08-20T00:58:01.209Z,20.18
2022-08-20T01:01:05.818Z,20.19
2022-08-20T01:04:08.234Z,20.10
2022-08-20T01:07:10.854Z,20.18
2022-08-20T01:10:19.401Z,20.14
2022-08-20T01:13:23.805Z,20.29
2022-08-20T01:16:29.449Z,20.48
2022-08-20T01:19:39.794Z,20.54
2022-08-20T01:23:28.082Z,20.42
2022-08-20T01:26:40.387Z,20.45
2022-08-20T01:29:42.666Z,20.08
2022-08-20T01:32:44.872Z,20.10
2022-08-20T01:35:47.227Z,20.35
2022-08-20T01:38:53.122Z,20.18
2022-08-20T01:42:08.644Z,20.17
2022-08-20T01:45:11.160Z,20.31
2022-08-20T01:48:14.236Z,20.36
2022-08-20T01:51:25.915Z,20.27
2022-08-20T01:54:28.553Z,20.48
2022-08-20T01:57:30.803Z,20.45
2022-08-20T02:00:34.971Z,20.51
2022-08-20T02:03:40.774Z,20.47
2022-08-20T02:06:57.194Z,20.61
2022-08-20T02:10:00.390Z,20.62
2022-08-20T02:13:03.026Z,20.39
2022-08-20T02:16:06.142Z,20.27
2022-08-20T02:19:15.032Z,20.28
2022-08-20T02:22:27.576Z,20.28
2022-08-20T02:25:32.714Z,20.39
2022-08-20T02:28:34.987Z,20.33
2022-08-20T02:31:37.949Z,20.35
2022-08-20T02:35:02.365Z,20.36
2022-08-20T02:38:04.951Z,20.04
2022-08-20T02:41:08.467Z,19.75
2022-08-20T02:44:11.096Z,19.74
2022-08-20T02:47:13.362Z,20.18
2022-08-20T02:50:18.632Z,20.17
2022-08-20T02:53:21.430Z,20.11
2022-08-20T02:56:23.676Z,20.11
2022-08-20T02:59:25.916Z,20.11
2022-08-20T03:02:28.505Z,20.16
2022-08-20T03:05:30.857Z,20.17
2022-08-20T03:08:33.885Z,20.23
2022-08-20T03:11:36.526Z,20.28
2022-08-20T03:14:38.874Z,20.30
2022-08-20T03:17:41.109Z,20.32
2022-08-20T03:20:46.030Z,20.28
2022-08-20T03:23:48.468Z,20.21
2022-08-20T03:26:50.702Z,20.34
2022-08-20T03:29:52.921Z,20.28
2022-08-20T03:32:55.512Z,20.29
2022-08-20T03:35:58.263Z,20.33
2022-08-20T03:39:02.475Z,20.32
2022-08-20T03:42:05.198Z,20.25
2022-08-20T03:45:08.952Z,20.30
2022-08-20T03:48:15.934Z,20.27
2022-08-20T03:51:18.113Z,20.26
2022-08-20T03:54:20.378Z,20.26
2022-08-20T03:57:22.668Z,20.46
2022-08-20T04:00:31.891Z,20.29
2022-08-20T04:03:35.081Z,20.17
2022-08-20T04:06:37.306Z,20.20
2022-08-20T04:09:41.280Z,20.29
2022-08-20T04:12:48.803Z,20.15
2022-08-20T04:15:55.609Z,19.92
2022-08-20T04:19:02.440Z,20.03
2022-08-20T04:22:05.801Z,20.02
2022-08-20T04:25:12.154Z,20.03
2022-08-20T04:28:30.219Z,20.09
2022-08-20T04:31:35.250Z,20.32
2022-08-20T04:34:37.435Z,20.28
2022-08-20T04:37:39.681Z,20.24
2022-08-20T04:40:54.066Z,20.10
2022-08-20T04:43:58.182Z,20.07
2022-08-20T04:47:01.829Z,19.92
2022-08-20T04:50:04.647Z,20.08
2022-08-20T04:53:09.469Z,20.15
2022-08-20T04:56:12.578Z,20.16
2022-08-20T04:59:15.083Z,20.30
2022-08-20T05:02:18.479Z,20.49
2022-08-20T05:05:22.456Z,20.45
2022-08-20T05:08:26.061Z,20.43
2022-08-20T05:11:35.854Z,20.57
2022-08-20T05:14:39.091Z,20.62
2022-08-20T05:17:43.011Z,20.60
2022-08-20T05:20:46.501Z,20.67
2022-08-20T05:23:49.393Z,20.79
2022-08-20T05:26:52.124Z,20.88
2022-08-20T05:30:10.239Z,20.73
2022-08-20T05:33:19.008Z,20.88
2022-08-20T05:36:22.148Z,20.85
2022-08-20T05:39:24.454Z,20.78
2022-08-20T05:42:29.202Z,21.16
2022-08-20T05:45:37.488Z,21.47
2022-08-20T05:48:39.733Z,21.85
2022-08-20T05:51:42.256Z,21.74
2022-08-20T05:54:44.511Z,21.60
2022-08-20T05:57:46.847Z,21.37
2022-08-20T06:00:49.853Z,21.45
2022-08-20T06:04:10.838Z,21.40
2022-08-20T06:07:13.114Z,21.63
2022-08-20T06:10:15.378Z,21.77
2022-08-20T06:13:17.592Z,21.65
2022-08-20T06:16:19.920Z,21.83
2022-08-20T06:19:26.164Z,22.08
2022-08-20T06:22:28.807Z,22.35
2022-08-20T06:25:36.092Z,22.38
2022-08-20T06:28:40.053Z,22.37
2022-08-20T06:31:42.330Z,22.35
2022-08-20T06:34:50.624Z,22.65
2022-08-20T06:37:53.603Z,22.87
2022-08-20T06:40:55.821Z,23.15
2022-08-20T06:43:58.056Z,23.43
2022-08-20T06:47:02.048Z,23.60
2022-08-20T06:50:08.850Z,23.66
2022-08-20T06:53:13.608Z,23.34
2022-08-20T06:56:16.641Z,23.40
2022-08-20T06:59:18.848Z,23.53
2022-08-20T07:02:21.134Z,23.49
2022-08-20T07:05:34.277Z,23.48
2022-08-20T07:08:36.558Z,23.34
2022-08-20T07:11:38.793Z,23.49
2022-08-20T07:14:41.336Z,23.61
2022-08-20T07:18:01.143Z,23.58
2022-08-20T07:21:04.237Z,23.56
2022-08-20T07:24:06.841Z,23.32
2022-08-20T07:27:09.076Z,23.35
2022-08-20T07:30:34.148Z,23.47
2022-08-20T07:33:56.402Z,23.52
2022-08-20T07:37:00.607Z,23.70
2022-08-20T07:40:03.066Z,23.74
2022-08-20T07:43:05.319Z,23.58
2022-08-20T07:46:09.091Z,23.68
2022-08-20T07:49:11.404Z,23.63
2022-08-20T07:52:13.768Z,23.58
2022-08-20T07:55:16.538Z,23.31
2022-08-20T07:58:21.404Z,23.32
2022-08-20T08:01:31.346Z,23.23
2022-08-20T08:04:34.070Z,23.06
2022-08-20T08:07:36.850Z,22.78
2022-08-20T08:10:41.714Z,22.69
2022-08-20T08:13:44.418Z,22.40
2022-08-20T08:16:46.744Z,22.24
2022-08-20T08:19:50.312Z,22.05
2022-08-20T08:22:53.864Z,21.94
2022-08-20T08:25:56.097Z,21.53
2022-08-20T08:28:58.614Z,21.24
2022-08-20T08:32:02.228Z,20.70
2022-08-20T08:35:07.602Z,20.53
2022-08-20T08:38:09.838Z,20.27
2022-08-20T08:41:21.651Z,20.21
2022-08-20T08:44:27.295Z,20.16
2022-08-20T08:47:34.732Z,20.13
2022-08-20T08:50:53.377Z,20.03
2022-08-20T08:53:57.124Z,20.21
2022-08-20T08:57:00.264Z,20.20
2022-08-20T09:00:10.032Z,20.06
2022-08-20T09:03:18.600Z,20.23
2022-08-20T09:06:23.992Z,20.28
2022-08-20T09:09:31.320Z,20.27
2022-08-20T09:12:33.570Z,20.15
2022-08-20T09:15:35.799Z,20.24
2022-08-20T09:18:38.387Z,20.16
2022-08-20T09:21:40.578Z,20.22
2022-08-20T09:24:43.700Z,20.38
2022-08-20T09:27:46.121Z,20.34
2022-08-20T09:30:50.677Z,20.27
2022-08-20T09:33:54.092Z,20.09
2022-08-20T09:36:56.346Z,20.21
2022-08-20T09:39:59.487Z,20.12
2022-08-20T09:43:03.586Z,20.03
2022-08-20T09:46:06.025Z,19.95
2022-08-20T09:49:08.920Z,19.86
2022-08-20T09:52:31.622Z,19.69
2022-08-20T09:55:39.639Z,19.58
2022-08-20T09:58:48.819Z,19.32
2022-08-20T10:01:53.897Z,19.22
2022-08-20T10:04:56.175Z,19.12
2022-08-20T10:07:59.821Z,19.07
2022-08-20T10:11:02.177Z,18.92
2022-08-20T10:14:04.519Z,18.92
2022-08-20T10:17:08.705Z,18.98
2022-08-20T10:20:13.304Z,19.17
2022-08-20T10:23:15.716Z,19.23
2022-08-20T10:26:18.049Z,19.30
2022-08-20T10:29:20.261Z,19.57
2022-08-20T10:32:22.542Z,19.82
2022-08-20T10:35:24.864Z,20.01
2022-08-20T10:38:29.793Z,20.16
2022-08-20T10:41:31.991Z,20.08
2022-08-20T10:44:34.305Z,19.65
2022-08-20T10:47:36.713Z,19.61
2022-08-20T10:50:38.991Z,19.43
2022-08-20T10:53:41.228Z,19.35
2022-08-20T10:56:43.532Z,19.47
2022-08-20T10:59:47.790Z,19.12
2022-08-20T11:02:50.206Z,19.05
2022-08-20T11:05:52.607Z,18.88
2022-08-20T11:08:56.990Z,18.77
2022-08-20T11:11:59.458Z,18.81
2022-08-20T11:15:01.745Z,18.81
2022-08-20T11:18:04.585Z,18.82
2022-08-20T11:21:06.979Z,18.98
2022-08-20T11:24:11.053Z,19.31
2022-08-20T11:27:23.704Z,19.37
2022-08-20T11:30:30.462Z,19.10
2022-08-20T11:33:32.682Z,19.15
2022-08-20T11:36:35.293Z,19.32
2022-08-20T11:39:41.577Z,19.47
2022-08-20T11:43:04.349Z,19.59
2022-08-20T11:46:06.405Z,19.69
2022-08-20T11:49:11.650Z,19.64
2022-08-20T11:52:14.242Z,19.70
2022-08-20T11:55:18.041Z,19.62
2022-08-20T11:58:20.459Z,19.87
2022-08-20T12:01:22.737Z,19.90
2022-08-20T12:04:25.237Z,19.88
2022-08-20T12:07:29.225Z,20.22
2022-08-20T12:10:31.925Z,20.07
2022-08-20T12:13:48.502Z,20.31
2022-08-20T12:16:51.310Z,20.13
2022-08-20T12:19:55.698Z,20.21
2022-08-20T12:22:59.005Z,20.17
2022-08-20T12:26:03.327Z,20.32
2022-08-20T12:29:05.647Z,20.37
2022-08-20T12:32:08.813Z,20.10
2022-08-20T12:35:12.975Z,20.24
2022-08-20T12:38:15.212Z,20.41
2022-08-20T12:41:17.411Z,20.60
2022-08-20T12:44:19.610Z,20.44
2022-08-20T12:47:33.623Z,20.18
2022-08-20T12:50:37.471Z,20.25
2022-08-20T12:53:40.061Z,20.14
2022-08-20T12:56:42.324Z,20.23
2022-08-20T12:59:44.571Z,20.01
2022-08-20T13:02:46.855Z,19.97
2022-08-20T13:05:50.842Z,19.89
2022-08-20T13:08:53.094Z,20.10
2022-08-20T13:11:55.320Z,20.18
2022-08-20T13:14:57.554Z,20.22
2022-08-20T13:18:01.844Z,20.25
2022-08-20T13:21:04.128Z,20.42
2022-08-20T13:24:06.460Z,20.28
2022-08-20T13:27:17.760Z,20.45
2022-08-20T13:30:20.346Z,20.66
2022-08-20T13:33:22.663Z,20.41
2022-08-20T13:36:25.955Z,20.47
2022-08-20T13:39:28.220Z,20.48
2022-08-20T13:42:30.550Z,20.18
2022-08-20T13:45:32.930Z,20.39
2022-08-20T13:48:35.336Z,20.33
2022-08-20T13:51:37.556Z,20.31
2022-08-20T13:54:39.989Z,20.43
2022-08-20T13:57:44.871Z,20.61
2022-08-20T14:00:47.185Z,20.88
2022-08-20T14:03:49.409Z,20.91
2022-08-20T14:06:51.873Z,20.71
2022-08-20T14:09:59.827Z,20.72
2022-08-20T14:13:03.558Z,20.66
2022-08-20T14:16:05.954Z,20.60
2022-08-20T14:19:23.768Z,20.53
2022-08-20T14:22:26.465Z,20.60
2022-08-20T14:25:30.691Z,20.60
2022-08-20T14:28:32.889Z,20.53
2022-08-20T14:31:35.088Z,20.61
2022-08-20T14:34:37.916Z,20.82
2022-08-20T14:37:46.422Z,20.81
2022-08-20T14:40:50.488Z,20.63
2022-08-20T14:43:52.988Z,20.65
2022-08-20T14:46:55.823Z,20.48
2022-08-20T14:50:02.544Z,20.51
2022-08-20T14:53:07.636Z,20.51
2022-08-20T14:56:09.852Z,20.66
2022-08-20T14:59:12.105Z,20.68
2022-08-20T15:02:16.158Z,20.93
2022-08-20T15:05:19.090Z,21.04
2022-08-20T15:08:21.588Z,20.79
2022-08-20T15:11:34.164Z,20.65
2022-08-20T15:14:39.311Z,20.62
2022-08-20T15:17:50.797Z,20.77
2022-08-20T15:20:53.036Z,20.90
2022-08-20T15:23:55.269Z,20.88
2022-08-20T15:26:57.575Z,20.93
2022-08-20T15:29:59.863Z,21.09
2022-08-20T15:33:02.996Z,21.12
2022-08-20T15:36:06.867Z,21.12
2022-08-20T15:39:09.106Z,21.18
2022-08-20T15:42:12.968Z,21.20
2022-08-20T15:45:21.973Z,21.20
2022-08-20T15:48:33.359Z,21.05
2022-08-20T15:51:38.574Z,21.04
2022-08-20T15:54:41.099Z,20.92
2022-08-20T15:57:54.997Z,21.05
2022-08-20T16:01:42.874Z,21.15
2022-08-20T16:04:57.600Z,21.24
2022-08-20T16:08:11.756Z,21.40
2022-08-20T16:11:35.622Z,21.37
2022-08-20T16:14:43.966Z,21.22
2022-08-20T16:17:49.717Z,21.20
2022-08-20T16:20:54.395Z,21.37
2022-08-20T16:23:57.605Z,21.42
2022-08-20T16:27:27.614Z,21.36
2022-08-20T16:30:35.481Z,21.29
2022-08-20T16:33:55.063Z,21.39
2022-08-20T16:37:27.761Z,21.39
2022-08-20T16:40:57.091Z,21.34
2022-08-20T16:44:04.236Z,21.40
2022-08-20T16:47:22.789Z,21.38
2022-08-20T16:50:35.418Z,21.36
2022-08-20T16:53:37.714Z,21.39
2022-08-20T16:56:46.149Z,21.39
2022-08-20T16:59:59.100Z,21.15
2022-08-20T17:03:33.583Z,21.13
2022-08-20T17:06:48.355Z,21.06
2022-08-20T17:09:52.690Z,21.08
2022-08-20T17:13:02.840Z,21.09
2022-08-20T17:16:06.700Z,21.12
2022-08-20T17:19:31.964Z,21.09
2022-08-20T17:22:43.265Z,21.03
2022-08-20T17:25:55.880Z,20.98
2022-08-20T17:29:05.960Z,20.81
2022-08-20T17:32:09.384Z,20.88
2022-08-20T17:35:24.574Z,20.77
2022-08-20T17:38:32.976Z,20.70
2022-08-20T17:41:36.138Z,20.74
2022-08-20T17:44:46.002Z,20.67
2022-08-20T17:47:48.877Z,20.41
2022-08-20T17:50:52.493Z,20.32
2022-08-20T17:54:02.609Z,20.23
2022-08-20T17:57:10.237Z,20.17
2022-08-20T18:00:17.973Z,20.14
2022-08-20T18:03:23.927Z,20.09
2022-08-20T18:07:01.872Z,20.08
2022-08-20T18:10:12.256Z,20.08
2022-08-20T18:13:19.207Z,19.96
2022-08-20T18:16:37.175Z,19.98
2022-08-20T18:19:54.521Z,19.89
2022-08-20T18:23:10.768Z,19.87
2022-08-20T18:26:31.825Z,19.81
2022-08-20T18:29:35.799Z,19.87
2022-08-20T18:32:38.801Z,20.00
2022-08-20T18:35:45.962Z,19.89
2022-08-20T18:39:00.543Z,19.73
2022-08-20T18:42:06.858Z,19.79
2022-08-20T18:45:09.247Z,19.74
2022-08-20T18:48:21.243Z,19.75
2022-08-20T18:51:29.429Z,19.67
2022-08-20T18:54:32.927Z,19.78
2022-08-20T18:57:41.862Z,19.81
2022-08-20T19:00:49.731Z,19.59
2022-08-20T19:03:55.688Z,19.50
2022-08-20T19:07:02.064Z,19.51
2022-08-20T19:10:39.772Z,19.49
2022-08-20T19:13:54.320Z,19.47
2022-08-20T19:17:02.607Z,19.52
2022-08-20T19:20:19.153Z,19.35
2022-08-20T19:23:24.157Z,19.31
2022-08-20T19:26:30.772Z,19.25
2022-08-20T19:29:36.997Z,19.25
2022-08-20T19:32:45.475Z,19.29
2022-08-20T19:35:49.557Z,19.40
2022-08-20T19:38:55.155Z,19.45
2022-08-20T19:42:14.234Z,19.45
2022-08-20T19:45:27.831Z,19.45
2022-08-20T19:48:45.175Z,19.56
2022-08-20T19:52:01.911Z,19.48
2022-08-20T19:55:04.974Z,19.19
2022-08-20T19:58:20.202Z,19.23
2022-08-20T20:01:29.074Z,19.15
2022-08-20T20:04:55.293Z,19.22
2022-08-20T20:07:58.624Z,19.21
2022-08-20T20:11:00.909Z,19.14
2022-08-20T20:14:11.596Z,19.20
2022-08-20T20:17:23.091Z,19.24
2022-08-20T20:20:28.938Z,19.24
2022-08-20T20:23:41.678Z,19.27
2022-08-20T20:26:49.706Z,19.19
2022-08-20T20:29:59.800Z,19.24
2022-08-20T20:33:13.269Z,19.23
2022-08-20T20:36:41.581Z,19.22
2022-08-20T20:39:47.101Z,19.27
2022-08-20T20:43:07.782Z,19.26
2022-08-20T20:46:14.552Z,19.30
2022-08-20T20:49:27.599Z,19.15
2022-08-20T20:52:33.127Z,19.12
2022-08-20T20:55:37.404Z,18.99
2022-08-20T20:58:39.612Z,19.04
2022-08-20T21:01:48.869Z,18.98
2022-08-20T21:04:52.260Z,18.96
2022-08-20T21:08:00.064Z,18.96
2022-08-20T21:11:02.860Z,19.04
2022-08-20T21:14:05.161Z,18.98
2022-08-20T21:17:09.786Z,18.84
2022-08-20T21:20:12.362Z,18.95
2022-08-20T21:23:14.683Z,18.98
2022-08-20T21:26:16.940Z,18.83
2022-08-20T21:29:32.505Z,18.85
2022-08-20T21:32:35.301Z,18.86
2022-08-20T21:35:38.922Z,18.92
2022-08-20T21:38:41.175Z,18.98
2022-08-20T21:41:43.790Z,18.94
2022-08-20T21:44:49.477Z,19.05
2022-08-20T21:47:52.423Z,19.07
2022-08-20T21:50:54.685Z,19.10
2022-08-20T21:53:56.948Z,19.13
2022-08-20T21:57:03.405Z,19.14
2022-08-20T22:00:12.987Z,19.41
2022-08-20T22:03:16.161Z,19.50
2022-08-20T22:06:18.679Z,19.44
2022-08-20T22:09:20.952Z,19.29
2022-08-20T22:12:24.485Z,19.18
2022-08-20T22:15:26.794Z,19.09
2022-08-20T22:18:29.197Z,18.93
2022-08-20T22:21:33.687Z,18.93
2022-08-20T22:24:35.905Z,19.01
2022-08-20T22:27:38.244Z,19.15
2022-08-20T22:30:42.510Z,19.21
2022-08-20T22:33:44.971Z,19.14
2022-08-20T22:36:47.979Z,19.18
2022-08-20T22:39:50.261Z,19.24
2022-08-20T22:42:52.917Z,19.20
2022-08-20T22:45:58.178Z,19.12
2022-08-20T22:49:00.508Z,19.01
2022-08-20T22:52:02.962Z,19.12
2022-08-20T22:55:06.539Z,19.18
2022-08-20T22:58:08.834Z,19.09
2022-08-20T23:01:12.830Z,19.26
2022-08-20T23:04:24.439Z,19.15
2022-08-20T23:07:26.679Z,19.22
2022-08-20T23:10:31.931Z,19.24
2022-08-20T23:13:34.190Z,19.29
2022-08-20T23:16:39.163Z,19.27
2022-08-20T23:19:41.966Z,19.22
2022-08-20T23:22:44.877Z,19.02
2022-08-20T23:25:47.485Z,18.92
2022-08-20T23:28:49.885Z,18.99
2022-08-20T23:31:52.380Z,19.09
2022-08-20T23:34:54.569Z,19.13
2022-08-20T23:37:57.817Z,19.15
2022-08-20T23:41:00.052Z,19.15
2022-08-20T23:44:02.281Z,19.12
2022-08-20T23:47:04.728Z,19.04
2022-08-20T23:50:09.345Z,18.97
2022-08-20T23:53:11.874Z,18.93
2022-08-20T23:56:14.108Z,18.86
2022-08-20T23:59:16.689Z,18.78
